West Manchester, Ohio
Current Conditions -  °F | °C
As of 2:55 AM on Sunday 26 Oct 2014 (Local Time) from KVES Reporting Station
Clear Clear  
Wind Chill:   Ceiling: Unl
Heat Index:   Visibility: 10mi
Dew Point:   Wind: 5mph
Humidity: 66%   Direction: 280°W
Pressure: 29.94"   Gusts: NA
Location:  39.9°N, 84.63°W
Report Text: KVES 260655Z AUTO 28004KT 10SM CLR 08/02 A2994 RMK AO2
Loading
Personal Weather Stations






























Interactive Weather Map
Tropical Storm Tracking
New forecast layout! Learn more

10-Day Weather Forecast

Advertisements
Track Severe Weather on mobile